Weather at Copenhagen Kastrup Airport

Public forecast

Using degrees Celsius for public forecast. Weather courtesy of forecast.io.

Current aviation weather report (METAR) for Copenhagen Kastrup Airport

2024/02/23 05:50 (retrieved 30 minutes ago)

EKCH 230550Z AUTO 21023G34KT 9999 BKN025/// 06/02 Q0982 BECMG 22035G48KT

Aviation forecast (TAF) for Copenhagen Kastrup Airport

2024/02/23 06:31 (retrieved 0 seconds ago)

TAF EKCH 230507Z 2306/2406 22035G48KT 9999 BKN020 BECMG 2306/2308 22022G38KT TEMPO 2308/2312 BKN012 SCT020CB BECMG 2312/2315 19015KT TEMPO 2318/2323 16018G28KT BECMG 2403/2406 15008KT